Time;durP1;ratioP1;P1;durP2;ratioP2;P2;SDS_P1;SDS_P2;PMS_P1;PMS_P2;Temp;Humidity;BMP_temperature;BMP_pressure;BME280_temperature;BME280_humidity;BME280_pressure;Samples;Min_cycle;Max_cycle;Signal;HPM_P1;HPM_P2
2023/03/29 00:00:51;;;;;;;3.45;2.75;;;;;;;1.45;62.39;95421.72;5012290;28;20291;-67
2023/03/29 00:03:19;;;;;;;8.30;3.45;;;;;;;1.42;61.97;95423.34;5013249;28;20291;-69
2023/03/29 00:05:46;;;;;;;6.28;3.42;;;;;;;1.42;63.18;95426.69;5013361;28;20882;-67
2023/03/29 00:08:13;;;;;;;3.83;3.60;;;;;;;1.43;62.17;95432.53;5011302;28;20829;-67
2023/03/29 00:10:41;;;;;;;4.78;2.97;;;;;;;1.34;62.37;95424.13;5014080;28;20212;-68
2023/03/29 00:13:08;;;;;;;3.20;2.95;;;;;;;1.20;62.56;95425.69;5012308;28;20256;-63
2023/03/29 00:15:35;;;;;;;4.68;3.25;;;;;;;1.25;62.03;95419.03;5010356;28;20296;-66
2023/03/29 00:18:01;;;;;;;4.88;3.25;;;;;;;1.37;62.97;95423.31;5013076;28;20211;-65
2023/03/29 00:20:30;;;;;;;5.40;3.08;;;;;;;1.35;62.87;95424.97;5013163;28;20685;-66
2023/03/29 00:22:56;;;;;;;3.30;3.10;;;;;;;1.28;62.79;95426.56;5013577;28;20290;-71
2023/03/29 00:25:23;;;;;;;4.13;3.08;;;;;;;1.28;62.00;95429.06;5014335;28;20305;-71
2023/03/29 00:27:50;;;;;;;7.38;3.10;;;;;;;1.29;61.88;95435.75;5010739;28;20342;-66
2023/03/29 00:30:17;;;;;;;4.30;3.33;;;;;;;1.31;62.03;95429.09;5015624;28;20236;-66
2023/03/29 00:32:43;;;;;;;3.15;2.95;;;;;;;1.30;61.77;95427.44;5013080;28;20288;-69
2023/03/29 00:35:10;;;;;;;3.58;3.38;;;;;;;1.29;61.50;95425.75;5015250;28;20296;-67
2023/03/29 00:37:40;;;;;;;3.60;3.30;;;;;;;1.32;61.48;95435.78;5012331;28;20207;-71
2023/03/29 00:40:09;;;;;;;3.33;3.13;;;;;;;1.29;61.33;95440.78;5013018;28;20211;-68
2023/03/29 00:42:35;;;;;;;4.82;3.10;;;;;;;1.31;61.81;95430.78;5011320;28;20222;-69
2023/03/29 00:45:06;;;;;;;3.72;3.25;;;;;;;1.36;61.04;95434.16;5010894;28;20303;-68
2023/03/29 00:47:38;;;;;;;7.50;3.20;;;;;;;1.43;60.38;95432.53;5012356;28;20232;-69
2023/03/29 00:50:08;;;;;;;3.50;3.00;;;;;;;1.38;60.73;95434.16;5012607;28;20749;-65
2023/03/29 00:52:36;;;;;;;3.15;2.85;;;;;;;1.35;61.13;95428.31;5012045;28;20784;-70
2023/03/29 00:55:11;;;;;;;3.53;3.22;;;;;;;1.42;60.58;95430.88;5013548;28;20207;-63
2023/03/29 00:57:40;;;;;;;3.90;2.88;;;;;;;1.40;60.47;95430.00;5015012;28;20214;-72
2023/03/29 01:00:09;;;;;;;3.70;3.50;;;;;;;1.33;61.09;95432.47;5015240;28;20304;-65
2023/03/29 01:02:38;;;;;;;3.70;3.40;;;;;;;1.31;60.92;95434.13;5014503;28;20299;-68
2023/03/29 01:05:09;;;;;;;3.03;2.83;;;;;;;1.23;61.71;95430.72;5013057;28;20664;-67
2023/03/29 01:07:46;;;;;;;5.15;3.60;;;;;;;1.15;61.28;95423.97;5010834;28;20372;-67
2023/03/29 01:10:19;;;;;;;3.33;2.88;;;;;;;1.28;61.71;95449.09;5011108;28;20286;-70
2023/03/29 01:12:50;;;;;;;9.20;3.28;;;;;;;1.26;61.56;95450.75;5011208;28;20243;-67
2023/03/29 01:15:19;;;;;;;2.83;2.63;;;;;;;1.30;60.95;95447.47;5011841;28;20776;-68
2023/03/29 01:17:49;;;;;;;8.60;3.35;;;;;;;1.18;61.57;95454.88;5010352;28;20243;-64
2023/03/29 01:20:19;;;;;;;3.33;3.00;;;;;;;1.25;61.14;95456.59;5014291;28;20247;-63
2023/03/29 01:23:04;;;;;;;3.67;3.25;;;;;;;1.29;61.21;95455.78;5011296;28;20401;-65
2023/03/29 01:25:38;;;;;;;6.60;3.22;;;;;;;1.20;61.21;95448.22;5013277;28;20204;-70
2023/03/29 01:28:09;;;;;;;3.15;2.95;;;;;;;1.28;60.22;95464.13;5011356;28;20262;-64
2023/03/29 01:30:42;;;;;;;4.70;3.08;;;;;;;1.18;60.45;95462.41;5009583;28;20281;-68
2023/03/29 01:33:19;;;;;;;3.70;3.40;;;;;;;1.14;61.11;95460.69;5012450;28;20236;-69
2023/03/29 01:35:51;;;;;;;3.17;2.97;;;;;;;1.20;60.63;95472.41;5011511;28;20214;-66
2023/03/29 01:38:24;;;;;;;6.47;2.95;;;;;;;1.18;60.27;95462.41;5011650;28;20306;-75
2023/03/29 01:40:51;;;;;;;3.33;3.13;;;;;;;1.18;59.86;95456.53;5011974;28;20314;-70
2023/03/29 01:43:24;;;;;;;3.47;3.17;;;;;;;1.13;59.90;95461.50;5012511;28;20573;-68
2023/03/29 01:46:00;;;;;;;3.90;3.05;;;;;;;1.06;59.78;95449.75;5011210;28;20211;-70
2023/03/29 01:48:30;;;;;;;2.90;2.80;;;;;;;1.13;60.13;95456.50;5008223;28;20231;-67
2023/03/29 01:51:03;;;;;;;5.68;3.13;;;;;;;1.13;59.80;95449.00;5011555;28;20414;-67
2023/03/29 01:53:36;;;;;;;3.28;3.08;;;;;;;1.16;59.11;95458.19;5010419;28;20207;-67
2023/03/29 01:56:07;;;;;;;3.60;3.33;;;;;;;1.14;59.27;95458.19;5011078;28;20211;-66
2023/03/29 01:58:41;;;;;;;3.10;2.95;;;;;;;1.16;59.92;95449.03;5009238;28;20234;-68
2023/03/29 02:01:10;;;;;;;7.43;2.97;;;;;;;1.02;59.89;95456.38;5010611;28;20206;-64
2023/03/29 02:03:42;;;;;;;3.42;3.13;;;;;;;0.96;60.48;95451.34;5010331;28;20670;-70
2023/03/29 02:06:11;;;;;;;4.45;3.28;;;;;;;0.98;59.82;95458.88;5009717;28;20992;-69
2023/03/29 02:08:40;;;;;;;3.72;3.42;;;;;;;1.00;60.47;95458.03;5009018;28;20318;-68
2023/03/29 02:11:07;;;;;;;3.17;2.97;;;;;;;1.02;59.77;95456.38;5010327;28;20203;-65
2023/03/29 02:13:35;;;;;;;2.78;2.67;;;;;;;1.05;60.00;95455.59;5009082;28;20294;-66
2023/03/29 02:16:08;;;;;;;3.17;2.97;;;;;;;1.09;59.40;95454.78;5010558;28;20662;-72
2023/03/29 02:18:36;;;;;;;5.63;3.17;;;;;;;1.02;59.82;95455.53;5011573;28;20294;-69
2023/03/29 02:21:02;;;;;;;3.03;2.87;;;;;;;0.94;60.32;95462.16;5008024;28;20578;-69
2023/03/29 02:23:33;;;;;;;3.38;3.17;;;;;;;1.03;60.66;95460.56;5010957;28;20294;-67
2023/03/29 02:26:02;;;;;;;4.55;3.22;;;;;;;1.05;59.70;95453.09;5009997;28;20636;-69
2023/03/29 02:28:30;;;;;;;2.90;2.80;;;;;;;1.09;59.55;95466.47;5010959;28;20234;-68
2023/03/29 02:31:05;;;;;;;4.95;3.17;;;;;;;0.99;59.29;95470.56;5009271;28;20669;-67
2023/03/29 02:33:40;;;;;;;3.30;3.10;;;;;;;0.89;59.67;95456.28;5010827;28;20370;-67
2023/03/29 02:36:12;;;;;;;3.53;3.33;;;;;;;0.95;59.63;95481.38;5009561;28;20289;-67
2023/03/29 02:38:39;;;;;;;3.43;3.00;;;;;;;0.85;60.12;95482.91;5010081;28;20331;-69
2023/03/29 02:41:08;;;;;;;3.37;3.10;;;;;;;0.87;59.96;95470.44;5011868;28;20215;-63
2023/03/29 02:43:36;;;;;;;2.90;2.80;;;;;;;0.98;60.11;95493.91;5010127;28;20510;-67
2023/03/29 02:46:07;;;;;;;5.72;3.20;;;;;;;0.98;60.01;95493.91;5011399;28;20210;-68
2023/03/29 02:48:37;;;;;;;3.03;2.80;;;;;;;0.97;60.31;95497.22;5009615;28;20227;-69
2023/03/29 02:51:12;;;;;;;3.40;3.20;;;;;;;0.99;60.46;95500.59;5010477;28;20299;-65
2023/03/29 02:53:42;;;;;;;3.53;3.13;;;;;;;0.93;60.10;95500.53;5009434;28;20234;-69
2023/03/29 02:56:09;;;;;;;5.40;2.53;;;;;;;0.97;59.60;95502.25;5008911;28;20373;-68
2023/03/29 02:58:36;;;;;;;3.17;2.97;;;;;;;0.97;60.07;95508.09;5008508;28;20228;-70
2023/03/29 03:01:06;;;;;;;2.85;2.65;;;;;;;0.92;59.64;95503.84;5006451;28;21482;-66
2023/03/29 03:03:32;;;;;;;3.90;3.40;;;;;;;0.91;60.33;95507.16;5010885;28;20231;-70
2023/03/29 03:06:00;;;;;;;2.67;2.47;;;;;;;0.91;60.54;95512.19;5011191;28;20203;-67
2023/03/29 03:08:27;;;;;;;2.97;2.78;;;;;;;0.81;60.32;95515.38;5013187;28;20319;-67
2023/03/29 03:10:54;;;;;;;3.42;3.15;;;;;;;0.91;61.02;95507.16;5016167;28;20294;-69
2023/03/29 03:13:20;;;;;;;4.53;2.95;;;;;;;0.91;60.95;95502.16;5017406;28;20215;-68
2023/03/29 03:15:48;;;;;;;3.22;3.03;;;;;;;0.93;61.46;95520.53;5017691;28;20806;-69
2023/03/29 03:18:16;;;;;;;4.60;2.60;;;;;;;1.02;61.41;95523.13;5016064;28;20203;-67
2023/03/29 03:20:45;;;;;;;2.67;2.40;;;;;;;1.01;62.05;95524.78;5017817;28;20228;-69
2023/03/29 03:23:12;;;;;;;2.80;2.60;;;;;;;1.06;60.94;95527.34;5016420;28;20207;-70
2023/03/29 03:25:38;;;;;;;3.28;2.95;;;;;;;1.10;61.13;95528.22;5017636;28;20223;-66
2023/03/29 03:28:05;;;;;;;2.90;2.65;;;;;;;1.00;61.50;95527.25;5016442;28;20358;-67
2023/03/29 03:30:32;;;;;;;3.50;3.30;;;;;;;0.92;62.03;95529.72;5016344;28;20246;-68
2023/03/29 03:32:59;;;;;;;2.70;2.60;;;;;;;0.97;61.32;95533.09;5016111;28;20649;-70
2023/03/29 03:35:27;;;;;;;4.03;2.78;;;;;;;1.00;61.44;95547.28;5016029;28;20335;-65
2023/03/29 03:37:54;;;;;;;3.05;2.85;;;;;;;0.97;61.42;95543.13;5017139;28;20286;-70
2023/03/29 03:40:20;;;;;;;3.70;2.97;;;;;;;0.97;60.85;95544.78;5015952;28;20701;-66
2023/03/29 03:42:47;;;;;;;3.85;2.58;;;;;;;1.01;59.98;95553.97;5016290;28;20647;-69
2023/03/29 03:45:14;;;;;;;3.00;2.80;;;;;;;0.87;60.44;95543.81;5016328;28;20668;-69
2023/03/29 03:47:41;;;;;;;4.35;2.60;;;;;;;0.81;59.93;95541.25;5015938;28;20277;-66
2023/03/29 03:50:08;;;;;;;3.00;2.80;;;;;;;0.72;60.02;95550.31;5015862;28;20212;-67
2023/03/29 03:52:37;;;;;;;2.88;2.67;;;;;;;0.81;60.23;95552.91;5015267;28;20208;-68
2023/03/29 03:55:04;;;;;;;2.80;2.60;;;;;;;0.78;58.94;95556.22;5016539;28;20209;-64
2023/03/29 03:57:31;;;;;;;3.03;2.72;;;;;;;0.76;59.52;95552.00;5017192;28;20199;-69
2023/03/29 03:59:58;;;;;;;2.38;2.28;;;;;;;0.89;59.16;95563.88;5015481;28;20238;-67
2023/03/29 04:02:25;;;;;;;3.70;2.35;;;;;;;0.81;59.55;95555.41;5015583;28;20227;-66
2023/03/29 04:04:53;;;;;;;2.80;2.60;;;;;;;0.72;58.92;95555.34;5015819;28;21065;-70
2023/03/29 04:07:20;;;;;;;3.25;2.97;;;;;;;0.67;58.71;95548.59;5016136;28;20251;-68
2023/03/29 04:09:48;;;;;;;4.95;2.90;;;;;;;0.74;58.94;95548.69;5015005;28;20390;-70
2023/03/29 04:12:15;;;;;;;2.67;2.30;;;;;;;0.80;58.94;95548.72;5017332;28;20222;-67
2023/03/29 04:14:41;;;;;;;2.80;2.60;;;;;;;0.85;58.44;95555.47;5016111;28;20353;-67
2023/03/29 04:17:08;;;;;;;3.67;2.78;;;;;;;0.92;57.49;95558.91;5015684;28;20689;-67
2023/03/29 04:19:35;;;;;;;3.33;2.70;;;;;;;1.04;57.77;95559.00;5013468;28;20282;-63
2023/03/29 04:22:02;;;;;;;5.82;3.15;;;;;;;1.04;57.03;95571.53;5013239;28;20212;-65
2023/03/29 04:24:28;;;;;;;2.35;2.25;;;;;;;0.99;57.31;95570.66;5012497;28;20293;-70
2023/03/29 04:26:57;;;;;;;3.03;2.60;;;;;;;1.07;57.56;95569.06;5013392;28;20260;-71
2023/03/29 04:29:23;;;;;;;3.70;2.27;;;;;;;1.18;56.70;95576.69;5011735;28;20338;-66
2023/03/29 04:31:50;;;;;;;2.85;2.60;;;;;;;1.12;56.14;95569.13;5012841;28;20265;-70
2023/03/29 04:34:17;;;;;;;3.65;3.03;;;;;;;1.16;56.96;95578.34;5011564;28;20222;-71
2023/03/29 04:36:43;;;;;;;5.07;2.78;;;;;;;1.15;56.73;95585.00;5013078;28;20294;-72
2023/03/29 04:39:11;;;;;;;4.10;3.80;;;;;;;1.27;56.63;95582.63;5011692;28;20316;-65
2023/03/29 04:41:37;;;;;;;3.80;3.05;;;;;;;1.30;56.28;95572.66;5013828;28;20203;-71
2023/03/29 04:44:07;;;;;;;3.33;3.13;;;;;;;1.52;56.42;95580.38;5012578;28;20288;-72
2023/03/29 04:46:33;;;;;;;3.17;3.00;;;;;;;1.73;56.39;95573.06;5012249;28;20253;-70
2023/03/29 04:49:00;;;;;;;7.88;4.50;;;;;;;2.09;54.78;95571.66;5011131;28;20255;-69
2023/03/29 04:51:27;;;;;;;4.82;4.40;;;;;;;2.59;53.63;95585.34;5011983;28;20302;-68
2023/03/29 04:53:54;;;;;;;4.03;3.63;;;;;;;3.33;51.50;95581.47;5013050;28;20239;-72
2023/03/29 04:56:21;;;;;;;2.60;2.50;;;;;;;3.81;49.62;95587.41;5012089;28;20696;-68
2023/03/29 04:58:48;;;;;;;4.97;4.45;;;;;;;4.18;48.78;95580.72;5012147;28;20207;-70
2023/03/29 05:01:17;;;;;;;5.63;3.38;;;;;;;4.60;47.09;95584.84;5011602;28;20728;-71
2023/03/29 05:03:44;;;;;;;3.38;3.08;;;;;;;5.35;45.15;95583.72;5010390;28;20288;-68
2023/03/29 05:06:11;;;;;;;3.60;2.75;;;;;;;6.13;43.47;95579.03;5012202;28;20231;-68
2023/03/29 05:08:39;;;;;;;2.90;2.70;;;;;;;6.80;42.37;95580.06;5011909;28;20673;-66
2023/03/29 05:11:07;;;;;;;2.50;2.30;;;;;;;7.69;40.37;95585.69;5012524;28;20227;-67
2023/03/29 05:13:34;;;;;;;2.95;2.75;;;;;;;8.23;38.34;95584.88;5013177;28;20269;-72
2023/03/29 05:16:01;;;;;;;4.68;3.00;;;;;;;8.61;37.28;95589.34;5012133;28;20273;-71
2023/03/29 05:18:29;;;;;;;2.45;2.25;;;;;;;9.34;36.14;95593.88;5011554;28;20696;-65
2023/03/29 05:20:57;;;;;;;2.83;2.58;;;;;;;9.98;34.60;95584.84;5011721;28;20289;-72
2023/03/29 05:23:24;;;;;;;5.47;2.75;;;;;;;10.55;33.52;95600.44;5011913;28;20208;-70
2023/03/29 05:25:52;;;;;;;4.40;2.75;;;;;;;9.59;33.77;95600.97;5010906;28;20672;-68
2023/03/29 05:28:19;;;;;;;5.20;3.25;;;;;;;8.25;35.76;95600.88;5011730;28;20253;-71
2023/03/29 05:30:47;;;;;;;10.57;5.38;;;;;;;8.09;36.80;95607.91;5010478;28;20238;-71
2023/03/29 05:33:14;;;;;;;5.25;4.70;;;;;;;7.72;38.28;95600.00;5011308;28;20203;-71
2023/03/29 05:35:42;;;;;;;5.72;3.85;;;;;;;8.67;37.99;95605.25;5011830;28;20203;-70
2023/03/29 05:38:09;;;;;;;3.95;2.47;;;;;;;10.31;34.21;95601.06;5012860;28;20211;-72
2023/03/29 05:40:35;;;;;;;7.60;3.70;;;;;;;11.28;32.45;95599.38;5011957;28;20301;-69
2023/03/29 05:43:02;;;;;;;6.72;3.28;;;;;;;12.02;30.67;95601.50;5014314;28;20266;-71
2023/03/29 05:45:31;;;;;;;10.48;4.22;;;;;;;13.08;29.57;95599.72;5013342;28;20296;-64
2023/03/29 05:47:57;;;;;;;12.35;5.28;;;;;;;14.33;27.54;95595.91;5011585;28;20708;-66
2023/03/29 05:50:24;;;;;;;6.03;2.83;;;;;;;14.88;26.17;95594.50;5011173;28;20299;-73
2023/03/29 05:52:52;;;;;;;3.33;2.70;;;;;;;14.34;26.95;95599.31;5011867;28;20216;-69
2023/03/29 05:55:19;;;;;;;4.07;3.35;;;;;;;13.08;27.97;95594.63;5011198;28;20204;-65
2023/03/29 05:57:46;;;;;;;4.25;2.75;;;;;;;10.99;30.68;95616.28;5011963;28;20345;-71
2023/03/29 06:00:20;;;;;;;2.45;2.25;;;;;;;9.35;33.33;95615.81;5011292;28;20230;-66
2023/03/29 06:02:47;;;;;;;3.47;2.03;;;;;;;8.09;35.67;95615.50;5011301;28;21454;-70
2023/03/29 06:05:14;;;;;;;2.30;2.20;;;;;;;7.35;36.70;95614.81;5011329;28;20293;-68
2023/03/29 06:07:41;;;;;;;2.60;2.15;;;;;;;6.87;37.82;95626.31;5010954;28;20212;-71
2023/03/29 06:10:11;;;;;;;2.13;1.90;;;;;;;6.29;38.84;95624.31;5010969;28;20211;-69
2023/03/29 06:12:37;;;;;;;1.90;1.80;;;;;;;5.86;39.75;95627.13;5010976;28;20208;-70
2023/03/29 06:15:05;;;;;;;2.72;2.05;;;;;;;5.86;40.14;95634.69;5012309;28;20247;-71
2023/03/29 06:17:33;;;;;;;7.00;4.28;;;;;;;6.58;39.23;95632.50;5009600;28;20204;-68
2023/03/29 06:20:00;;;;;;;5.60;3.33;;;;;;;8.63;36.19;95629.00;5009362;28;20238;-71
2023/03/29 06:22:27;;;;;;;3.25;2.30;;;;;;;9.17;33.87;95626.31;5010881;28;20624;-73
2023/03/29 06:24:54;;;;;;;2.05;1.90;;;;;;;8.79;34.79;95640.53;5010855;28;20204;-73
2023/03/29 06:27:22;;;;;;;5.47;2.05;;;;;;;8.53;34.21;95630.00;5010231;28;21056;-68
2023/03/29 06:29:49;;;;;;;2.15;1.63;;;;;;;8.54;34.55;95631.69;5011009;28;20321;-71
2023/03/29 06:32:15;;;;;;;2.10;2.00;;;;;;;7.81;35.34;95638.66;5008454;28;20273;-69
2023/03/29 06:34:42;;;;;;;2.30;2.20;;;;;;;7.22;37.19;95653.72;5011085;28;20294;-64
2023/03/29 06:37:09;;;;;;;2.47;1.95;;;;;;;7.01;37.43;95653.09;5010882;28;20685;-68
2023/03/29 06:39:36;;;;;;;3.65;1.95;;;;;;;7.12;37.80;95642.91;5010702;28;20200;-71
2023/03/29 06:42:04;;;;;;;3.75;2.00;;;;;;;7.01;37.31;95653.09;5008949;28;20362;-69
2023/03/29 06:44:32;;;;;;;6.28;1.90;;;;;;;7.09;37.62;95658.94;5009937;28;20261;-69
2023/03/29 06:47:00;;;;;;;2.35;1.65;;;;;;;7.19;37.37;95669.75;5009625;28;20265;-62
2023/03/29 06:49:27;;;;;;;4.93;2.50;;;;;;;7.35;37.10;95671.28;5010272;28;20235;-68
2023/03/29 06:51:55;;;;;;;2.97;2.15;;;;;;;9.00;34.91;95664.66;5010432;28;20327;-70
2023/03/29 06:54:22;;;;;;;3.33;2.10;;;;;;;10.04;32.17;95652.44;5010786;28;20822;-68
2023/03/29 06:56:49;;;;;;;2.85;1.90;;;;;;;12.09;30.16;95646.28;5010496;28;20207;-73
2023/03/29 06:59:16;;;;;;;2.72;1.50;;;;;;;15.67;25.01;95638.09;5011205;28;20232;-71
2023/03/29 07:01:46;;;;;;;1.85;1.75;;;;;;;16.01;24.00;95627.19;5009709;28;20203;-70
2023/03/29 07:04:12;;;;;;;1.85;1.55;;;;;;;15.38;24.68;95640.16;5010144;28;20231;-71
2023/03/29 07:06:39;;;;;;;1.98;1.88;;;;;;;14.15;25.92;95656.25;5009264;28;20290;-70
2023/03/29 07:09:06;;;;;;;2.83;2.47;;;;;;;12.68;26.68;95648.66;5009439;28;20334;-70
2023/03/29 07:11:35;;;;;;;1.98;1.80;;;;;;;11.46;28.97;95642.97;5009689;28;20277;-69
2023/03/29 07:14:02;;;;;;;2.13;1.75;;;;;;;10.57;29.82;95653.78;5009894;28;20234;-68
2023/03/29 07:16:29;;;;;;;5.63;2.85;;;;;;;10.61;30.50;95660.47;5009629;28;20304;-68
2023/03/29 07:18:57;;;;;;;7.25;3.50;;;;;;;10.57;29.97;95664.78;5010339;28;20203;-66
2023/03/29 07:21:24;;;;;;;3.33;2.20;;;;;;;9.72;30.76;95660.75;5010415;28;20231;-70
2023/03/29 07:23:51;;;;;;;2.05;1.95;;;;;;;9.21;32.29;95669.34;5011912;28;20290;-68
2023/03/29 07:26:19;;;;;;;9.15;2.50;;;;;;;8.75;32.70;95674.38;5010098;28;20214;-69
2023/03/29 07:28:46;;;;;;;2.30;2.20;;;;;;;8.37;33.14;95672.47;5008755;28;20224;-69
2023/03/29 07:31:14;;;;;;;5.75;4.03;;;;;;;8.26;33.53;95660.78;5009854;28;20206;-66
2023/03/29 07:33:41;;;;;;;5.07;2.63;;;;;;;8.42;32.56;95673.22;5010303;28;20298;-68
2023/03/29 07:36:10;;;;;;;2.70;2.33;;;;;;;9.01;32.44;95665.50;5010149;28;20609;-69
2023/03/29 07:38:37;;;;;;;2.28;1.58;;;;;;;10.63;30.39;95658.72;5008442;28;20200;-65
2023/03/29 07:41:05;;;;;;;1.92;1.83;;;;;;;11.47;28.54;95652.28;5010768;28;20212;-70
2023/03/29 07:43:33;;;;;;;2.17;1.98;;;;;;;10.34;29.78;95659.41;5010191;28;20366;-66
2023/03/29 07:46:01;;;;;;;6.00;2.08;;;;;;;10.30;30.22;95659.50;5010070;28;20212;-69
2023/03/29 07:48:28;;;;;;;2.22;2.03;;;;;;;11.65;28.58;95652.63;5010210;28;20239;-68
2023/03/29 07:50:55;;;;;;;3.85;1.65;;;;;;;12.06;28.08;95649.75;5009517;28;20208;-70
2023/03/29 07:53:24;;;;;;;5.57;2.33;;;;;;;14.54;24.60;95641.13;5009038;28;20204;-72
2023/03/29 07:55:53;;;;;;;4.57;1.85;;;;;;;18.59;21.07;95628.56;5012140;28;20320;-70
2023/03/29 07:58:20;;;;;;;2.85;1.60;;;;;;;21.71;18.82;95617.69;5014620;28;21446;-71
2023/03/29 08:00:47;;;;;;;6.10;2.33;;;;;;;24.91;15.70;95588.41;5011046;28;20199;-69
2023/03/29 08:03:15;;;;;;;3.47;1.92;;;;;;;23.29;16.50;95604.63;5011774;28;20204;-72
2023/03/29 08:05:42;;;;;;;1.77;1.67;;;;;;;20.16;18.09;95596.91;5014276;28;20208;-68
2023/03/29 08:08:09;;;;;;;3.55;1.75;;;;;;;19.32;19.27;95616.63;5013207;28;20825;-70
2023/03/29 08:10:38;;;;;;;2.38;1.60;;;;;;;18.90;19.20;95620.78;5012852;28;20732;-68
2023/03/29 08:13:07;;;;;;;1.80;1.70;;;;;;;20.08;18.10;95618.94;5012885;28;20218;-71
2023/03/29 08:15:34;;;;;;;1.60;1.50;;;;;;;22.30;16.58;95615.31;5012714;28;20210;-67
2023/03/29 08:18:01;;;;;;;1.60;1.50;;;;;;;23.99;15.23;95592.31;5012180;28;20211;-69
2023/03/29 08:20:27;;;;;;;4.40;1.80;;;;;;;26.33;14.48;95595.44;5012641;28;20253;-68
2023/03/29 08:22:54;;;;;;;4.57;3.35;;;;;;;26.50;13.86;95585.31;5010941;28;20706;-65
2023/03/29 08:25:21;;;;;;;2.75;1.92;;;;;;;25.58;14.24;95597.59;5013293;28;20287;-70
2023/03/29 08:27:49;;;;;;;3.55;2.20;;;;;;;25.86;13.49;95581.31;5010795;28;20231;-70
2023/03/29 08:30:16;;;;;;;3.42;2.30;;;;;;;26.12;13.29;95584.25;5012989;28;20338;-71
2023/03/29 08:32:43;;;;;;;2.10;2.00;;;;;;;25.94;13.46;95593.69;5013494;28;20330;-69
2023/03/29 08:35:10;;;;;;;3.10;1.90;;;;;;;23.54;14.22;95581.13;5014039;28;20301;-69
2023/03/29 08:37:37;;;;;;;4.40;3.55;;;;;;;24.11;14.00;95590.53;5013342;28;20219;-71
2023/03/29 08:40:05;;;;;;;2.95;2.65;;;;;;;25.94;13.22;95578.06;5013665;28;20295;-70
2023/03/29 08:43:07;;;;;;;3.88;1.75;;;;;;;27.65;12.58;95589.66;5012938;28;20586;-72
2023/03/29 08:45:38;;;;;;;4.32;1.48;;;;;;;28.57;10.90;95582.56;4951715;28;20230;-68
2023/03/29 08:48:18;;;;;;;4.72;3.03;;;;;;;26.63;11.92;95597.13;5013752;28;20214;-66
2023/03/29 08:50:49;;;;;;;3.03;2.13;;;;;;;25.19;12.87;95580.97;5011998;28;21170;-70
2023/03/29 08:53:20;;;;;;;2.45;1.80;;;;;;;24.95;13.11;95578.63;5012598;28;20298;-72
2023/03/29 08:55:48;;;;;;;3.40;2.08;;;;;;;24.81;13.37;95576.28;5013832;28;20204;-69
2023/03/29 08:58:20;;;;;;;2.13;1.88;;;;;;;24.53;13.25;95583.72;5012269;28;20294;-71
2023/03/29 09:00:49;;;;;;;1.90;1.80;;;;;;;23.83;13.36;95572.84;5012588;28;20204;-71
2023/03/29 09:03:22;;;;;;;3.35;2.58;;;;;;;23.61;13.91;95568.50;5011416;28;20218;-71
2023/03/29 09:05:53;;;;;;;3.40;1.65;;;;;;;22.64;14.92;95572.28;5008177;28;20845;-67
2023/03/29 09:08:22;;;;;;;2.92;1.20;;;;;;;21.44;15.25;95590.31;5007572;28;20269;-70
2023/03/29 09:11:05;;;;;;;2.28;1.40;;;;;;;20.50;15.98;95580.13;5011339;28;20338;-67
2023/03/29 09:13:45;;;;;;;1.20;1.20;;;;;;;18.06;17.43;95585.22;5009914;28;20732;-72
2023/03/29 09:16:20;;;;;;;1.45;1.35;;;;;;;16.62;18.41;95574.63;5010418;28;20700;-71
2023/03/29 09:18:57;;;;;;;1.48;1.38;;;;;;;15.62;19.76;95569.94;5008810;28;20214;-67
2023/03/29 09:21:34;;;;;;;1.60;1.50;;;;;;;14.74;20.10;95594.25;5012338;28;20199;-72
2023/03/29 09:24:18;;;;;;;1.40;1.25;;;;;;;14.59;20.50;95584.66;5010732;28;20236;-75
2023/03/29 09:26:48;;;;;;;1.20;1.20;;;;;;;13.79;21.87;95560.56;5010335;28;20755;-66
2023/03/29 09:29:45;;;;;;;1.63;1.42;;;;;;;12.62;22.78;95582.59;5004620;28;20758;-62
2023/03/29 09:32:19;;;;;;;1.63;1.52;;;;;;;12.05;23.63;95571.66;5008307;28;20212;-71
2023/03/29 09:34:54;;;;;;;5.63;1.75;;;;;;;11.73;24.37;95584.50;5009206;28;20222;-68
2023/03/29 09:37:25;;;;;;;1.65;1.30;;;;;;;11.50;24.17;95573.28;5010742;28;20214;-70
2023/03/29 09:39:54;;;;;;;2.22;2.03;;;;;;;11.25;23.57;95568.06;5009095;28;20286;-67
2023/03/29 09:42:22;;;;;;;1.33;1.25;;;;;;;10.57;23.79;95587.72;5009990;28;20209;-63
2023/03/29 09:44:56;;;;;;;1.38;1.30;;;;;;;10.25;24.69;95585.94;5010638;28;21135;-67
2023/03/29 09:47:26;;;;;;;1.27;1.17;;;;;;;10.14;23.70;95598.06;5010401;28;20299;-69
2023/03/29 09:49:59;;;;;;;1.40;1.30;;;;;;;10.09;24.55;95575.28;5008257;28;20599;-69
2023/03/29 09:52:26;;;;;;;1.85;1.65;;;;;;;9.95;25.50;95592.53;5011043;28;20222;-70
2023/03/29 09:54:53;;;;;;;2.10;1.77;;;;;;;9.79;25.39;95581.91;5008815;28;20219;-67
2023/03/29 09:57:20;;;;;;;3.08;1.92;;;;;;;9.95;25.09;95582.38;5007199;28;20219;-74
2023/03/29 09:59:51;;;;;;;1.58;1.48;;;;;;;10.03;24.98;95566.97;4999492;28;20204;-70
2023/03/29 10:02:20;;;;;;;1.65;1.55;;;;;;;9.89;24.47;95577.47;5010401;28;20208;-69
2023/03/29 10:04:54;;;;;;;3.80;1.52;;;;;;;9.79;24.78;95583.59;5009020;28;20239;-67
2023/03/29 10:07:21;;;;;;;3.67;1.45;;;;;;;9.79;25.21;95581.06;5011335;28;20208;-72
2023/03/29 10:09:51;;;;;;;3.05;1.48;;;;;;;9.82;25.81;95565.78;5009146;28;20275;-68
2023/03/29 10:12:19;;;;;;;1.15;1.05;;;;;;;9.73;25.35;95555.81;5010644;28;20208;-67
2023/03/29 10:14:51;;;;;;;2.38;1.15;;;;;;;9.83;26.07;95573.34;5009987;28;20200;-67
2023/03/29 10:17:21;;;;;;;2.67;1.60;;;;;;;9.85;25.96;95555.56;5010203;28;20208;-70
2023/03/29 10:19:50;;;;;;;0.93;0.93;;;;;;;9.69;25.40;95574.50;5009901;28;20246;-66
2023/03/29 10:22:21;;;;;;;1.55;1.27;;;;;;;9.58;25.97;95561.25;5009899;28;20204;-70
2023/03/29 10:24:50;;;;;;;1.30;1.20;;;;;;;9.64;25.83;95561.13;5010002;28;20423;-66
2023/03/29 10:27:21;;;;;;;1.50;1.40;;;;;;;9.76;26.50;95570.97;5010090;28;20234;-69
2023/03/29 10:29:48;;;;;;;1.35;1.02;;;;;;;9.74;26.50;95558.31;5010461;28;20227;-68
2023/03/29 10:32:26;;;;;;;1.95;1.38;;;;;;;9.84;25.73;95569.09;5009810;28;20207;-69
2023/03/29 10:34:54;;;;;;;1.50;1.40;;;;;;;9.77;25.93;95559.97;5011450;28;20704;-66
2023/03/29 10:37:22;;;;;;;1.85;1.35;;;;;;;9.63;26.02;95544.22;5010337;28;20250;-70
2023/03/29 10:39:50;;;;;;;1.20;1.10;;;;;;;9.50;27.00;95533.47;5011524;28;20204;-69
2023/03/29 10:42:22;;;;;;;1.27;1.20;;;;;;;9.52;26.40;95547.81;5008497;28;20214;-70
2023/03/29 10:44:54;;;;;;;1.08;1.08;;;;;;;9.40;26.01;95537.91;5011117;28;20273;-70
2023/03/29 10:47:23;;;;;;;1.10;1.10;;;;;;;9.46;26.29;95537.78;5009919;28;20239;-67
2023/03/29 10:49:52;;;;;;;1.42;1.05;;;;;;;9.50;25.26;95541.94;5009587;28;20298;-63
2023/03/29 10:52:20;;;;;;;1.77;1.17;;;;;;;9.47;25.81;95526.78;5009566;28;20207;-70
2023/03/29 10:54:48;;;;;;;2.38;2.17;;;;;;;9.43;25.83;95540.38;5009922;28;20307;-67
2023/03/29 10:57:24;;;;;;;3.25;1.90;;;;;;;9.37;25.55;95524.47;5010292;28;20747;-70
2023/03/29 10:59:59;;;;;;;2.38;2.15;;;;;;;9.39;26.17;95527.81;5009866;28;20293;-67
2023/03/29 11:02:59;;;;;;;1.08;0.95;;;;;;;9.43;26.30;95526.88;5009756;28;20664;-71
2023/03/29 11:05:32;;;;;;;1.35;1.10;;;;;;;9.52;25.65;95535.13;5010555;28;20235;-69
2023/03/29 11:08:28;;;;;;;1.42;1.30;;;;;;;9.61;26.38;95526.47;5009154;28;20273;-70
2023/03/29 11:11:07;;;;;;;1.27;1.27;;;;;;;9.62;25.47;95520.53;5006402;28;20227;-71
2023/03/29 11:13:43;;;;;;;3.38;1.00;;;;;;;9.50;25.70;95523.34;5009338;28;20207;-70
2023/03/29 11:16:20;;;;;;;1.35;0.98;;;;;;;9.43;25.56;95529.41;5010401;28;20217;-68
2023/03/29 11:19:09;;;;;;;1.35;1.25;;;;;;;9.49;25.79;95516.59;5009501;28;20207;-66
2023/03/29 11:21:41;;;;;;;1.60;1.50;;;;;;;9.48;25.58;95518.28;5010022;28;20204;-66
2023/03/29 11:24:35;;;;;;;3.15;1.58;;;;;;;9.47;26.16;95509.00;5010160;28;20299;-70
2023/03/29 11:27:15;;;;;;;2.22;1.80;;;;;;;9.47;26.16;95515.78;5009639;28;20231;-65
2023/03/29 11:29:56;;;;;;;2.47;1.90;;;;;;;9.46;27.04;95497.19;5011061;28;20207;-71
2023/03/29 11:32:34;;;;;;;1.83;1.73;;;;;;;9.46;27.07;95521.72;5012198;28;20357;-68
2023/03/29 11:35:15;;;;;;;1.50;1.40;;;;;;;9.48;26.26;95503.06;5013185;28;20202;-64
2023/03/29 11:37:49;;;;;;;1.35;1.25;;;;;;;9.53;26.91;95513.97;5012842;28;20236;-68
2023/03/29 11:40:34;;;;;;;4.53;1.48;;;;;;;9.54;26.93;95492.78;5013795;28;20199;-70
2023/03/29 11:43:04;;;;;;;1.50;1.30;;;;;;;9.70;26.41;95510.19;5012932;28;20219;-67
2023/03/29 11:45:36;;;;;;;1.42;1.33;;;;;;;9.75;26.00;95508.38;5013177;28;20225;-68
2023/03/29 11:48:07;;;;;;;1.38;1.25;;;;;;;9.61;25.81;95501.09;5012364;28;20210;-70
2023/03/29 11:50:42;;;;;;;4.75;2.20;;;;;;;9.54;25.93;95497.88;5013807;28;20223;-67